Nearby METAR Reports

 

KNFE - Fentress Naval, Virginia, USA
Distance from station: ENE 5mi, 7km
Updated: Tue, 24-Nov-2020 8:56pm EST
Clear
Clear
 Wind from calm
Wind: Calm
Temperature: 39°F , 4°C
Dew Point: 37°F , 3°C
Humidity: 93%
Barometer: 30.42 inHg , 1030.1 hPa
Clouds: Clear
Visibility: 10 miles , 16 km
2020/11/25 01:56 KNFE 250156Z AUTO 00000KT 10SM CLR 04/03 A3042 RMK AO2 SLP301 T00440028
KCPK - Chesapeake, Virginia, USA
Distance from station: W 6mi, 9km
Updated: Tue, 24-Nov-2020 9:15pm EST
Clear
Clear
 Wind from calm
Wind: Calm
Temperature: 37°F , 3°C
Dew Point: 36°F , 2°C
Humidity: 93%
Barometer: 30.42 inHg , 1030.1 hPa
Clouds: Clear
Visibility: 10 miles , 16 km
2020/11/25 02:15 KCPK 250215Z AUTO 00000KT 10SM CLR 03/02 A3042 RMK AO2 T00300023
 
KNTU - Oceana Nas/Souce, Virginia, USA
Distance from station: NE 14mi, 23km
Updated: Tue, 24-Nov-2020 8:56pm EST
Mostly cloudy
Mostly cloudy
 Wind from calm
Wind: Calm
Temperature: 43°F , 6°C
Dew Point: 36°F , 2°C
Humidity: 76%
Barometer: 30.41 inHg , 1029.8 hPa
Clouds: Mostly cloudy
Visibility: 10 miles , 16 km
Cloud details: Mostly cloudy 28000 ft
2020/11/25 01:56 KNTU 250156Z 00000KT 10SM BKN280 06/02 A3041 RMK AO2 SLP299 T00560017
KORF - Norfolk, Virginia, USA
Distance from station: N 15mi, 24km
Updated: Tue, 24-Nov-2020 8:51pm EST
Clear
Clear
 Wind from calm
Wind: Calm
Temperature: 46°F , 8°C
Dew Point: 36°F , 2°C
Humidity: 66%
Barometer: 30.41 inHg , 1029.8 hPa
Clouds: Clear
Visibility: 10 miles , 16 km
2020/11/25 01:51 KORF 250151Z 00000KT 10SM CLR 08/02 A3041 RMK AO2 SLP298 T00830022
 
KPVG - Norfolk/Hampton, Virginia, USA
Distance from station: WNW 15mi, 24km
Updated: Sun, 11-Oct-2020 8:56pm EDT
NOT Current
Light rain, Mist, Overcast
Light rain, Mist, Overcast
 Wind from E
Wind: E 7 mph , 11 km/h
Temperature: 66°F , 19°C
Dew Point: 66°F , 19°C
Humidity: 100%
Barometer: 30.00 inHg , 1015.9 hPa
Summary: Light rain, Mist
Clouds: Overcast
Visibility: 5 miles , 8 km
Cloud details: Overcast 700 ft
2020/10/12 00:56 KPVG 120056Z AUTO 10006KT 5SM -RA BR OVC007 19/19 A3000 RMK AO2 SLP159 T01890189 PNO $
KNGU - Norfolk Nas/Cham, Virginia, USA
Distance from station: N 16mi, 26km
Updated: Tue, 24-Nov-2020 8:59pm EST
Partly cloudy
Partly cloudy
 Wind from calm
Wind: Calm
Temperature: 43°F , 6°C
Dew Point: 36°F , 2°C
Humidity: 76%
Barometer: 30.43 inHg , 1030.5 hPa
Clouds: Partly cloudy
Visibility: 10 miles , 16 km
Cloud details: Partly cloudy 25000 ft
2020/11/25 01:59 KNGU 250159Z 00000KT 10SM SCT250 06/02 A3043 RMK AO2 SLP304 T00560022 $
 
KSFQ - Suffolk, Virginia, USA
Distance from station: W 21mi, 34km
Updated: Tue, 24-Nov-2020 9:15pm EST
Clear
Clear
 Wind from calm
Wind: Calm
Temperature: 41°F , 5°C
Dew Point: 37°F , 3°C
Humidity: 87%
Barometer: 30.42 inHg , 1030.1 hPa
Clouds: Clear
Visibility: 10 miles , 16 km
2020/11/25 02:15 KSFQ 250215Z AUTO 00000KT 10SM CLR 05/03 A3042 RMK AO2 T00450027
KONX - Currituck, North Carolina, USA
Distance from station: SSE 22mi, 36km
Updated: Tue, 24-Nov-2020 9:15pm EST
Clear
Clear
 Wind from calm
Wind: Calm
Temperature: 41°F , 5°C
Dew Point: 41°F , 5°C
Humidity: 100%
Barometer: 30.41 inHg , 1029.8 hPa
Clouds: Clear
Visibility: 10 miles , 16 km
2020/11/25 02:15 KONX 250215Z AUTO 00000KT 10SM CLR 05/05 A3041 RMK AO2 T00480047
 
KLFI - Langley Afb/Hamp, Virginia, USA
Distance from station: NNW 28mi, 45km
Updated: Tue, 24-Nov-2020 8:56pm EST
Clear
Clear
 Wind from calm
Wind: Calm
Temperature: 41°F , 5°C
Dew Point: 39°F , 4°C
Humidity: 93%
Barometer: 30.42 inHg , 1030.1 hPa
Clouds: Clear
Visibility: 10 miles , 16 km
2020/11/25 01:56 KLFI 250156Z AUTO 00000KT 10SM CLR 05/04 A3042 RMK AO2 SLP308 T00530039 $
KECG - Elizabeth City, North Carolina, USA
Distance from station: S 29mi, 46km
Updated: Tue, 24-Nov-2020 8:54pm EST
Clear
Clear
 Wind from calm
Wind: Calm
Temperature: 43°F , 6°C
Dew Point: 39°F , 4°C
Humidity: 87%
Barometer: 30.42 inHg , 1030.1 hPa
Clouds: Clear
Visibility: 10 miles , 16 km
2020/11/25 01:54 KECG 250154Z 00000KT 10SM CLR 06/04 A3042 RMK AO2 SLP299 T00610039
 
KPHF - Newport News, Virginia, USA
Distance from station: NNW 35mi, 56km
Updated: Tue, 24-Nov-2020 8:54pm EST
Clear
Clear
 Wind from calm
Wind: Calm
Temperature: 39°F , 4°C
Dew Point: 36°F , 2°C
Humidity: 87%
Barometer: 30.42 inHg , 1030.1 hPa
Clouds: Clear
Visibility: 10 miles , 16 km
2020/11/25 01:54 KPHF 250154Z AUTO 00000KT 10SM CLR 04/02 A3042 RMK AO2 RAB33E42 SLP302 P0000 T00440022
KFAF - Ft Eustis/Felker, Virginia, USA
Distance from station: NW 37mi, 60km
Updated: Tue, 24-Nov-2020 8:56pm EST
Clear
Clear
 Wind from calm
Wind: Calm
Temperature: 45°F , 7°C
Dew Point: 34°F , 1°C
Humidity: 66%
Barometer: 30.40 inHg , 1029.5 hPa
Clouds: Clear
Visibility: 10 miles , 16 km
2020/11/25 01:56 KFAF 250156Z AUTO 00000KT 10SM CLR 07/01 A3040 RMK AO2 SLP298 T00650014 $
 
KFKN - Franklin/J B Ros, Virginia, USA
Distance from station: W 38mi, 61km
Updated: Tue, 24-Nov-2020 9:15pm EST
Clear
Clear
 Wind from E
Wind: E 3 mph , 6 km/h
Temperature: 37°F , 3°C
Dew Point: 37°F , 3°C
Humidity: 100%
Barometer: 30.42 inHg , 1030.1 hPa
Clouds: Clear
Visibility: 10 miles , 16 km
2020/11/25 02:15 KFKN 250215Z AUTO 10003KT 10SM CLR 03/03 A3042 RMK AO2 T00280025
KJGG - Williamsburg, Virginia, USA
Distance from station: NW 47mi, 76km
Updated: Tue, 24-Nov-2020 9:15pm EST
Clear
Clear
 Wind from calm
Wind: Calm
Temperature: 43°F , 6°C
Dew Point: 39°F , 4°C
Humidity: 87%
Barometer: 30.42 inHg , 1030.1 hPa
Clouds: Clear
Visibility: 10 miles , 16 km
2020/11/25 02:15 KJGG 250215Z AUTO 00000KT 10SM CLR 06/04 A3042 RMK AO1
 
KAKQ - Norfolk/Wakefld, Virginia, USA
Distance from station: WNW 48mi, 78km
Updated: Tue, 24-Nov-2020 8:54pm EST
Clear
Clear
 Wind from calm
Wind: Calm
Temperature: 37°F , 3°C
Dew Point: 36°F , 2°C
Humidity: 93%
Barometer: 30.41 inHg , 1029.8 hPa
Clouds: Clear
Visibility: 10 miles , 16 km
2020/11/25 01:54 KAKQ 250154Z AUTO 00000KT 10SM CLR 03/02 A3041 RMK AO2 SLP300 T00330022
KEDE - Edenton, North Carolina, USA
Distance from station: SSW 50mi, 80km
Updated: Tue, 24-Nov-2020 9:15pm EST
Clear
Clear
 Wind from calm
Wind: Calm
Temperature: 43°F , 6°C
Dew Point: 41°F , 5°C
Humidity: 93%
Barometer: 30.42 inHg , 1030.1 hPa
Clouds: Clear
Visibility: 10 miles , 16 km
2020/11/25 02:15 KEDE 250215Z AUTO 00000KT 10SM CLR 06/05 A3042 RMK AO2 T00620054